createdAt,value
2019-05-21T00:02:25.854Z,99426.84
2019-05-21T00:04:54.370Z,99430.86
2019-05-21T00:07:22.891Z,99424.39
2019-05-21T00:09:51.402Z,99424.20
2019-05-21T00:12:19.906Z,99427.91
2019-05-21T00:14:48.734Z,99429.39
2019-05-21T00:17:17.294Z,99429.07
2019-05-21T00:19:45.806Z,99429.14
2019-05-21T00:22:14.352Z,99425.89
2019-05-21T00:24:42.899Z,99426.56
2019-05-21T00:27:11.411Z,99433.52
2019-05-21T00:30:16.597Z,99436.36
2019-05-21T00:33:21.597Z,99436.13
2019-05-21T00:36:28.269Z,99427.23
2019-05-21T00:39:32.761Z,99431.24
2019-05-21T00:42:01.014Z,99426.30
2019-05-21T00:44:30.611Z,99439.45
2019-05-21T00:46:59.117Z,99425.29
2019-05-21T00:49:27.616Z,99435.22
2019-05-21T00:52:07.129Z,99437.20
2019-05-21T00:54:26.355Z,99440.76
2019-05-21T00:56:54.909Z,99438.98
2019-05-21T00:59:23.690Z,99446.80
2019-05-21T01:01:52.470Z,99436.99
2019-05-21T01:04:20.974Z,99439.36
2019-05-21T01:06:49.480Z,99429.87
2019-05-21T01:09:17.994Z,99429.30
2019-05-21T01:11:46.480Z,99422.28
2019-05-21T01:14:15.310Z,99425.29
2019-05-21T01:16:43.815Z,99414.02
2019-05-21T01:19:12.612Z,99423.46
2019-05-21T01:21:41.129Z,99418.99
2019-05-21T01:24:10.041Z,99426.09
2019-05-21T01:26:38.822Z,99426.31
2019-05-21T01:29:07.320Z,99425.29
2019-05-21T01:31:35.811Z,99423.79
2019-05-21T01:34:04.927Z,99427.75
2019-05-21T01:36:33.416Z,99423.28
2019-05-21T01:39:01.973Z,99427.60
2019-05-21T01:41:30.459Z,99422.84
2019-05-21T01:43:58.966Z,99413.62
2019-05-21T01:46:27.463Z,99412.19
2019-05-21T01:48:56.032Z,99409.22
2019-05-21T01:51:24.533Z,99393.97
2019-05-21T01:53:53.042Z,99406.17
2019-05-21T01:56:21.592Z,99411.52
2019-05-21T01:58:50.447Z,99406.36
2019-05-21T02:01:19.237Z,99407.34
2019-05-21T02:03:48.183Z,99409.39
2019-05-21T02:06:16.675Z,99407.27
2019-05-21T02:08:45.296Z,99415.61
2019-05-21T02:11:13.821Z,99406.41
2019-05-21T02:13:42.417Z,99401.89
2019-05-21T02:16:10.982Z,99398.57
2019-05-21T02:18:39.505Z,99392.28
2019-05-21T02:21:08.021Z,99410.97
2019-05-21T02:23:37.135Z,99395.02
2019-05-21T02:26:05.670Z,99414.39
2019-05-21T02:28:34.211Z,99413.04
2019-05-21T02:31:02.702Z,99416.88
2019-05-21T02:33:31.237Z,99397.77
2019-05-21T02:35:59.743Z,99408.78
2019-05-21T02:38:28.273Z,99410.78
2019-05-21T02:40:56.771Z,99414.66
2019-05-21T02:43:25.281Z,99404.05
2019-05-21T02:45:53.815Z,99402.31
2019-05-21T02:48:22.317Z,99396.94
2019-05-21T02:50:51.211Z,99405.98
2019-05-21T02:53:19.695Z,99410.56
2019-05-21T02:55:48.207Z,99406.15
2019-05-21T02:58:16.694Z,99403.95
2019-05-21T03:00:59.133Z,99402.05
2019-05-21T03:03:29.558Z,99399.36
2019-05-21T03:06:13.221Z,99389.03
2019-05-21T03:08:29.006Z,99388.20
2019-05-21T03:10:57.748Z,99397.00
2019-05-21T03:13:26.218Z,99409.91
2019-05-21T03:15:54.715Z,99414.37
2019-05-21T03:18:23.213Z,99410.49
2019-05-21T03:20:52.127Z,99424.28
2019-05-21T03:23:20.623Z,99434.63
2019-05-21T03:25:49.155Z,99430.16
2019-05-21T03:28:17.947Z,99426.77
2019-05-21T03:30:46.486Z,99444.66
2019-05-21T03:33:14.982Z,99440.00
2019-05-21T03:35:43.502Z,99435.52
2019-05-21T03:38:11.984Z,99438.71
2019-05-21T03:40:40.787Z,99440.38
2019-05-21T03:43:09.280Z,99439.48
2019-05-21T03:45:37.791Z,99423.25
2019-05-21T03:48:06.280Z,99414.30
2019-05-21T03:50:34.833Z,99408.21
2019-05-21T03:53:03.418Z,99403.12
2019-05-21T03:55:31.997Z,99398.59
2019-05-21T03:58:00.505Z,99404.61
2019-05-21T04:00:28.977Z,99414.97
2019-05-21T04:02:57.479Z,99418.19
2019-05-21T04:05:26.323Z,99406.72
2019-05-21T04:07:54.955Z,99412.77
2019-05-21T04:10:23.881Z,99412.23
2019-05-21T04:13:17.461Z,99426.36
2019-05-21T04:15:58.566Z,99425.53
2019-05-21T04:18:32.255Z,99450.39
2019-05-21T04:21:00.740Z,99430.70
2019-05-21T04:23:29.268Z,99425.89
2019-05-21T04:25:57.995Z,99444.89
2019-05-21T04:28:27.018Z,99453.21
2019-05-21T04:30:55.542Z,99456.09
2019-05-21T04:33:24.048Z,99456.09
2019-05-21T04:35:52.854Z,99446.84
2019-05-21T04:38:21.354Z,99450.20
2019-05-21T04:40:49.842Z,99439.81
2019-05-21T04:43:18.338Z,99433.84
2019-05-21T04:45:47.068Z,99433.16
2019-05-21T04:48:16.025Z,99443.60
2019-05-21T04:50:44.503Z,99444.66
2019-05-21T04:53:13.035Z,99444.42
2019-05-21T04:55:41.840Z,99435.65
2019-05-21T04:58:10.337Z,99439.66
2019-05-21T05:00:38.834Z,99434.36
2019-05-21T05:03:07.605Z,99453.75
2019-05-21T05:05:36.098Z,99450.05
2019-05-21T05:08:06.929Z,99455.73
2019-05-21T05:10:35.104Z,99462.98
2019-05-21T05:13:03.655Z,99459.77
2019-05-21T05:15:32.756Z,99448.96
2019-05-21T05:18:01.250Z,99454.32
2019-05-21T05:20:29.787Z,99450.42
2019-05-21T05:22:58.288Z,99455.00
2019-05-21T05:25:26.782Z,99454.88
2019-05-21T05:27:55.327Z,99460.92
2019-05-21T05:30:23.898Z,99451.77
2019-05-21T05:32:52.389Z,99462.08
2019-05-21T05:35:21.255Z,99460.97
2019-05-21T05:37:50.365Z,99460.50
2019-05-21T05:40:18.867Z,99459.72
2019-05-21T05:42:47.358Z,99471.48
2019-05-21T05:45:15.858Z,99456.46
2019-05-21T05:47:44.344Z,99462.45
2019-05-21T05:50:14.896Z,99473.55
2019-05-21T05:52:43.394Z,99470.14
2019-05-21T05:55:12.273Z,99470.47
2019-05-21T05:57:40.932Z,99470.19
2019-05-21T06:00:11.790Z,99467.37
2019-05-21T06:02:40.592Z,99471.58
2019-05-21T06:05:09.404Z,99483.95
2019-05-21T06:07:38.171Z,99460.81
2019-05-21T06:10:06.709Z,99473.88
2019-05-21T06:12:35.287Z,99472.55
2019-05-21T06:15:03.966Z,99462.27
2019-05-21T06:17:32.433Z,99464.34
2019-05-21T06:20:00.925Z,99472.20
2019-05-21T06:22:29.404Z,99466.48
2019-05-21T06:24:57.999Z,99468.06
2019-05-21T06:27:26.501Z,99465.10
2019-05-21T06:29:55.345Z,99464.13
2019-05-21T06:32:23.836Z,99457.06
2019-05-21T06:34:52.341Z,99453.70
2019-05-21T06:37:20.827Z,99453.99
2019-05-21T06:39:50.407Z,99460.50
2019-05-21T06:42:18.897Z,99465.96
2019-05-21T06:44:47.389Z,99457.13
2019-05-21T06:47:15.890Z,99467.95
2019-05-21T06:49:44.381Z,99470.13
2019-05-21T06:52:13.277Z,99475.25
2019-05-21T06:54:41.733Z,99476.45
2019-05-21T06:57:10.245Z,99486.14
2019-05-21T06:59:38.823Z,99494.83
2019-05-21T07:02:07.324Z,99505.61
2019-05-21T07:04:35.921Z,99488.69
2019-05-21T07:07:04.337Z,99501.45
2019-05-21T07:09:32.849Z,99494.00
2019-05-21T07:12:01.600Z,99495.80
2019-05-21T07:14:30.366Z,99502.23
2019-05-21T07:16:58.878Z,99497.68
2019-05-21T07:19:27.780Z,99501.30
2019-05-21T07:22:11.411Z,99498.21
2019-05-21T07:24:28.243Z,99510.39
2019-05-21T07:26:57.019Z,99513.39
2019-05-21T07:29:25.539Z,99516.92
2019-05-21T07:31:54.211Z,99518.44
2019-05-21T07:34:22.801Z,99525.97
2019-05-21T07:36:51.286Z,99524.17
2019-05-21T07:39:19.794Z,99507.94
2019-05-21T07:41:48.294Z,99517.71
2019-05-21T07:44:16.771Z,99531.80
2019-05-21T07:46:45.252Z,99518.51
2019-05-21T07:49:13.739Z,99543.78
2019-05-21T07:51:42.273Z,99543.30
2019-05-21T07:54:10.758Z,99549.09
2019-05-21T07:56:39.339Z,99535.27
2019-05-21T07:59:08.426Z,99545.98
2019-05-21T08:01:36.940Z,99559.85
2019-05-21T08:04:05.423Z,99558.14
2019-05-21T08:06:34.248Z,99561.10
2019-05-21T08:09:13.514Z,99567.13
2019-05-21T08:11:33.788Z,99593.89
2019-05-21T08:14:02.274Z,99605.41
2019-05-21T08:16:30.781Z,99604.34
2019-05-21T08:18:59.274Z,99609.23
2019-05-21T08:21:27.772Z,99609.52
2019-05-21T08:23:56.252Z,99611.62
2019-05-21T08:26:24.751Z,99621.94
2019-05-21T08:28:53.588Z,99621.25
2019-05-21T08:31:22.443Z,99618.48
2019-05-21T08:33:50.957Z,99619.83
2019-05-21T08:36:19.462Z,99622.75
2019-05-21T08:38:47.973Z,99638.86
2019-05-21T08:41:16.552Z,99616.59
2019-05-21T08:43:45.035Z,99626.98
2019-05-21T08:46:13.538Z,99621.41
2019-05-21T08:48:42.048Z,99641.70
2019-05-21T08:51:10.541Z,99637.08
2019-05-21T08:53:39.036Z,99637.59
2019-05-21T08:56:07.803Z,99644.72
2019-05-21T08:58:36.312Z,99645.13
2019-05-21T09:01:04.846Z,99647.34
2019-05-21T09:03:33.347Z,99656.47
2019-05-21T09:06:01.839Z,99653.97
2019-05-21T09:08:30.633Z,99643.32
2019-05-21T09:10:59.156Z,99651.37
2019-05-21T09:13:27.989Z,99654.70
2019-05-21T09:15:56.532Z,99647.30
2019-05-21T09:18:25.276Z,99674.27
2019-05-21T09:20:53.758Z,99671.63
2019-05-21T09:23:22.348Z,99681.19
2019-05-21T09:25:50.855Z,99681.13
2019-05-21T09:28:19.341Z,99681.68
2019-05-21T09:30:47.821Z,99671.22
2019-05-21T09:33:16.355Z,99678.25
2019-05-21T09:35:44.889Z,99677.86
2019-05-21T09:38:13.548Z,99673.02
2019-05-21T09:40:42.076Z,99674.42
2019-05-21T09:43:10.648Z,99677.89
2019-05-21T09:45:39.603Z,99694.81
2019-05-21T09:48:08.365Z,99688.16
2019-05-21T09:50:37.230Z,99678.16
2019-05-21T09:53:05.815Z,99697.38
2019-05-21T09:55:34.528Z,99697.81
2019-05-21T09:58:24.847Z,99693.98
2019-05-21T10:01:18.409Z,99699.81
2019-05-21T10:03:57.688Z,99698.30
2019-05-21T10:06:26.541Z,99691.34
2019-05-21T10:08:55.105Z,99694.91
2019-05-21T10:11:23.686Z,99688.66
2019-05-21T10:13:52.275Z,99689.73
2019-05-21T10:16:21.347Z,99701.43
2019-05-21T10:18:50.290Z,99711.42
2019-05-21T10:21:19.106Z,99719.61
2019-05-21T10:23:47.646Z,99730.65
2019-05-21T10:26:16.123Z,99728.27
2019-05-21T10:28:44.675Z,99736.23
2019-05-21T10:31:13.173Z,99721.69
2019-05-21T10:33:41.782Z,99731.66
2019-05-21T10:36:11.060Z,99736.00
2019-05-21T10:38:40.260Z,99719.76
2019-05-21T10:41:08.840Z,99716.76
2019-05-21T10:43:37.413Z,99721.66
2019-05-21T10:46:05.986Z,99712.54
2019-05-21T10:48:34.550Z,99725.77
2019-05-21T10:51:03.059Z,99703.81
2019-05-21T10:53:31.552Z,99713.20
2019-05-21T10:56:00.060Z,99725.20
2019-05-21T10:58:29.005Z,99731.28
2019-05-21T11:01:04.551Z,99746.28
2019-05-21T11:03:51.003Z,99756.33
2019-05-21T11:06:19.647Z,99772.19
2019-05-21T11:08:48.573Z,99770.50
2019-05-21T11:11:21.074Z,99769.80
2019-05-21T11:13:47.802Z,99757.47
2019-05-21T11:16:16.712Z,99756.78
2019-05-21T11:18:45.233Z,99761.25
2019-05-21T11:21:13.733Z,99770.28
2019-05-21T11:23:42.543Z,99777.31
2019-05-21T11:26:11.866Z,99762.63
2019-05-21T11:28:40.488Z,99764.74
2019-05-21T11:31:08.984Z,99764.33
2019-05-21T11:33:37.525Z,99777.08
2019-05-21T11:36:06.118Z,99785.66
2019-05-21T11:38:39.942Z,99770.33
2019-05-21T11:41:05.246Z,99774.05
2019-05-21T11:43:33.792Z,99801.15
2019-05-21T11:46:03.254Z,99801.55
2019-05-21T11:48:31.875Z,99802.47
2019-05-21T11:51:00.583Z,99795.17
2019-05-21T11:53:31.936Z,99805.00
2019-05-21T11:55:59.473Z,99816.44
2019-05-21T11:58:28.090Z,99818.83
2019-05-21T12:00:56.635Z,99828.17
2019-05-21T12:03:25.521Z,99826.88
2019-05-21T12:05:54.446Z,99819.10
2019-05-21T12:08:22.988Z,99832.98
2019-05-21T12:10:51.880Z,99816.61
2019-05-21T12:13:20.760Z,99829.64
2019-05-21T12:15:49.569Z,99826.14
2019-05-21T12:18:18.065Z,99839.48
2019-05-21T12:20:46.601Z,99837.86
2019-05-21T12:23:15.163Z,99845.62
2019-05-21T12:25:43.652Z,99857.75
2019-05-21T12:28:12.271Z,99853.50
2019-05-21T12:30:41.283Z,99857.99
2019-05-21T12:33:09.869Z,99867.59
2019-05-21T12:35:38.445Z,99868.55
2019-05-21T12:38:07.235Z,99860.52
2019-05-21T12:40:35.914Z,99865.73
2019-05-21T12:43:05.036Z,99869.58
2019-05-21T12:45:33.598Z,99877.80
2019-05-21T12:48:02.233Z,99886.08
2019-05-21T12:50:31.048Z,99888.68
2019-05-21T12:52:59.981Z,99904.19
2019-05-21T12:55:28.604Z,99915.81
2019-05-21T12:57:57.168Z,99912.11
2019-05-21T13:00:29.494Z,99927.80
2019-05-21T13:02:58.347Z,99938.91
2019-05-21T13:05:26.892Z,99931.61
2019-05-21T13:07:55.457Z,99940.98
2019-05-21T13:10:26.759Z,99948.08
2019-05-21T13:12:54.378Z,99945.44
2019-05-21T13:15:22.979Z,99952.72
2019-05-21T13:17:51.533Z,99956.59
2019-05-21T13:20:20.236Z,99962.06
2019-05-21T13:22:49.108Z,99962.06
2019-05-21T13:25:17.992Z,99966.53
2019-05-21T13:27:46.501Z,99963.55
2019-05-21T13:30:15.035Z,99962.74
2019-05-21T13:32:44.014Z,99982.27
2019-05-21T13:35:12.684Z,99974.95
2019-05-21T13:37:41.312Z,99987.84
2019-05-21T13:40:09.886Z,99981.48
2019-05-21T13:42:38.485Z,99989.36
2019-05-21T13:45:07.249Z,99990.34
2019-05-21T13:47:35.839Z,99993.17
2019-05-21T13:50:05.056Z,99987.70
2019-05-21T13:52:33.708Z,99994.92
2019-05-21T13:55:02.232Z,99990.31
2019-05-21T13:57:30.782Z,99991.73
2019-05-21T13:59:59.378Z,99997.22
2019-05-21T14:02:27.973Z,99999.45
2019-05-21T14:04:56.571Z,99994.41
2019-05-21T14:07:25.577Z,99987.70
2019-05-21T14:10:13.422Z,100003.34
2019-05-21T14:12:24.659Z,99999.78
2019-05-21T14:14:53.187Z,99999.83
2019-05-21T14:17:21.658Z,100004.80
2019-05-21T14:19:50.232Z,100009.06
2019-05-21T14:22:18.715Z,100007.00
2019-05-21T14:24:47.246Z,100016.22
2019-05-21T14:27:15.733Z,100025.09
2019-05-21T14:29:44.539Z,100023.45
2019-05-21T14:32:13.032Z,100024.80
2019-05-21T14:34:41.603Z,100023.98
2019-05-21T14:37:10.121Z,100030.77
2019-05-21T14:39:38.676Z,100029.41
2019-05-21T14:42:07.161Z,100040.91
2019-05-21T14:44:35.657Z,100044.97
2019-05-21T14:47:04.213Z,100046.28
2019-05-21T14:49:32.798Z,100039.49
2019-05-21T14:52:01.535Z,100052.27
2019-05-21T14:54:30.372Z,100051.98
2019-05-21T14:56:58.978Z,100062.78
2019-05-21T14:59:27.464Z,100061.06
2019-05-21T15:01:56.042Z,100059.88
2019-05-21T15:04:25.177Z,100061.45
2019-05-21T15:06:54.048Z,100062.73
2019-05-21T15:09:22.542Z,100064.64
2019-05-21T15:11:51.277Z,100069.24
2019-05-21T15:14:19.784Z,100061.33
2019-05-21T15:16:48.517Z,100061.18
2019-05-21T15:19:17.323Z,100054.02
2019-05-21T15:21:49.922Z,100074.06
2019-05-21T15:24:18.416Z,100069.40
2019-05-21T15:26:46.939Z,100078.30
2019-05-21T15:29:15.780Z,100068.38
2019-05-21T15:31:44.280Z,100079.64
2019-05-21T15:34:12.779Z,100073.24
2019-05-21T15:36:41.615Z,100071.39
2019-05-21T15:39:10.102Z,100067.72
2019-05-21T15:41:38.593Z,100067.80
2019-05-21T15:44:07.488Z,100075.92
2019-05-21T15:46:47.813Z,100059.16
2019-05-21T15:49:06.462Z,100077.59
2019-05-21T15:51:34.997Z,100069.94
2019-05-21T15:54:03.527Z,100073.95
2019-05-21T15:56:32.070Z,100084.86
2019-05-21T15:59:01.162Z,100083.23
2019-05-21T16:01:29.690Z,100080.85
2019-05-21T16:03:58.507Z,100094.70
2019-05-21T16:06:27.066Z,100095.05
2019-05-21T16:08:55.565Z,100096.55
2019-05-21T16:11:28.420Z,100099.07
2019-05-21T16:13:54.285Z,100105.77
2019-05-21T16:16:22.787Z,100095.69
2019-05-21T16:18:51.307Z,100099.56
2019-05-21T16:21:19.797Z,100097.95
2019-05-21T16:23:48.304Z,100100.09
2019-05-21T16:26:16.820Z,100095.88
2019-05-21T16:28:45.322Z,100095.54
2019-05-21T16:31:14.066Z,100098.65
2019-05-21T16:33:42.584Z,100103.44
2019-05-21T16:36:11.171Z,100100.46
2019-05-21T16:38:39.761Z,100115.24
2019-05-21T16:41:08.369Z,100110.38
2019-05-21T16:43:37.139Z,100100.17
2019-05-21T16:46:05.636Z,100127.97
2019-05-21T16:48:34.212Z,100130.36
2019-05-21T16:51:03.747Z,100139.38
2019-05-21T16:53:32.309Z,100138.91
2019-05-21T16:56:00.795Z,100133.85
2019-05-21T16:58:29.686Z,100149.12
2019-05-21T17:00:58.194Z,100141.92
2019-05-21T17:03:26.695Z,100138.41
2019-05-21T17:05:55.197Z,100136.06
2019-05-21T17:08:23.739Z,100139.38
2019-05-21T17:10:52.272Z,100143.40
2019-05-21T17:13:20.804Z,100141.06
2019-05-21T17:15:49.559Z,100141.05
2019-05-21T17:18:18.071Z,100139.05
2019-05-21T17:20:46.617Z,100138.23
2019-05-21T17:23:15.152Z,100142.43
2019-05-21T17:25:44.005Z,100133.02
2019-05-21T17:28:12.602Z,100138.05
2019-05-21T17:30:41.136Z,100145.77
2019-05-21T17:33:09.960Z,100141.08
2019-05-21T17:35:38.764Z,100142.44
2019-05-21T17:38:07.436Z,100143.92
2019-05-21T17:40:36.077Z,100149.80
2019-05-21T17:43:04.597Z,100148.29
2019-05-21T17:45:33.117Z,100147.77
2019-05-21T17:48:01.640Z,100154.14
2019-05-21T17:50:30.250Z,100146.25
2019-05-21T17:52:58.856Z,100149.63
2019-05-21T17:55:28.161Z,100149.80
2019-05-21T17:57:56.780Z,100159.53
2019-05-21T18:00:39.409Z,100157.35
2019-05-21T18:03:08.184Z,100157.35
2019-05-21T18:05:36.712Z,100169.25
2019-05-21T18:08:05.497Z,100162.20
2019-05-21T18:10:34.498Z,100162.55
2019-05-21T18:13:03.479Z,100167.25
2019-05-21T18:15:32.197Z,100181.52
2019-05-21T18:18:01.009Z,100177.97
2019-05-21T18:20:29.993Z,100183.33
2019-05-21T18:22:59.532Z,100191.06
2019-05-21T18:25:28.115Z,100199.42
2019-05-21T18:27:56.694Z,100196.10
2019-05-21T18:30:25.235Z,100202.47
2019-05-21T18:32:54.531Z,100210.52
2019-05-21T18:35:23.048Z,100202.14
2019-05-21T18:37:51.916Z,100207.17
2019-05-21T18:40:20.403Z,100202.13
2019-05-21T18:42:48.923Z,100202.77
2019-05-21T18:45:17.592Z,100202.77
2019-05-21T18:47:46.110Z,100208.31
2019-05-21T18:50:14.711Z,100217.89
2019-05-21T18:52:43.297Z,100211.80
2019-05-21T18:55:13.049Z,100216.19
2019-05-21T18:57:41.579Z,100229.06
2019-05-21T19:00:10.535Z,100220.31
2019-05-21T19:02:39.137Z,100232.42
2019-05-21T19:05:07.667Z,100232.75
2019-05-21T19:07:36.453Z,100235.64
2019-05-21T19:10:05.556Z,100237.28
2019-05-21T19:12:38.136Z,100233.63
2019-05-21T19:15:06.627Z,100241.84
2019-05-21T19:17:36.082Z,100239.33
2019-05-21T19:20:07.010Z,100248.34
2019-05-21T19:22:35.917Z,100254.41
2019-05-21T19:25:05.225Z,100257.09
2019-05-21T19:27:33.868Z,100258.44
2019-05-21T19:30:02.648Z,100254.66
2019-05-21T19:32:31.318Z,100255.67
2019-05-21T19:34:59.921Z,100266.11
2019-05-21T19:37:28.526Z,100265.81
2019-05-21T19:39:57.088Z,100269.50
2019-05-21T19:42:25.624Z,100271.47
2019-05-21T19:44:54.258Z,100276.84
2019-05-21T19:47:22.790Z,100288.24
2019-05-21T19:49:51.303Z,100276.50
2019-05-21T19:52:19.867Z,100285.89
2019-05-21T19:54:48.386Z,100296.80
2019-05-21T19:57:17.407Z,100290.74
2019-05-21T19:59:45.963Z,100287.90
2019-05-21T20:02:14.493Z,100303.20
2019-05-21T20:04:45.033Z,100300.02
2019-05-21T20:07:15.221Z,100311.59
2019-05-21T20:09:45.647Z,100315.66
2019-05-21T20:12:14.383Z,100314.44
2019-05-21T20:14:42.936Z,100319.51
2019-05-21T20:17:12.067Z,100318.00
2019-05-21T20:19:42.224Z,100318.55
2019-05-21T20:22:11.402Z,100325.59
2019-05-21T20:24:41.472Z,100319.17
2019-05-21T20:27:10.842Z,100314.77
2019-05-21T20:29:39.351Z,100315.39
2019-05-21T20:32:09.136Z,100318.80
2019-05-21T20:34:38.757Z,100322.48
2019-05-21T20:37:07.501Z,100329.19
2019-05-21T20:39:37.870Z,100327.12
2019-05-21T20:42:08.000Z,100330.30
2019-05-21T20:44:36.507Z,100321.16
2019-05-21T20:47:05.862Z,100333.22
2019-05-21T20:49:35.269Z,100326.39
2019-05-21T20:52:17.816Z,100326.93
2019-05-21T20:54:34.974Z,100333.61
2019-05-21T20:57:05.481Z,100331.25
2019-05-21T20:59:34.063Z,100330.12
2019-05-21T21:02:08.067Z,100332.59
2019-05-21T21:04:35.033Z,100332.80
2019-05-21T21:07:05.099Z,100335.98
2019-05-21T21:09:33.688Z,100343.66
2019-05-21T21:12:02.194Z,100332.72
2019-05-21T21:14:31.669Z,100337.45
2019-05-21T21:17:00.457Z,100337.33
2019-05-21T21:19:28.961Z,100332.59
2019-05-21T21:21:57.722Z,100333.20
2019-05-21T21:24:26.479Z,100343.94
2019-05-21T21:26:55.049Z,100339.42
2019-05-21T21:29:23.884Z,100337.52
2019-05-21T21:31:52.388Z,100331.13
2019-05-21T21:34:20.892Z,100338.97
2019-05-21T21:36:53.145Z,100346.63
2019-05-21T21:39:20.581Z,100343.27
2019-05-21T21:41:49.745Z,100345.95
2019-05-21T21:44:33.181Z,100337.58
2019-05-21T21:46:49.677Z,100340.14
2019-05-21T21:49:19.363Z,100340.11
2019-05-21T21:51:48.031Z,100338.97
2019-05-21T21:54:16.758Z,100335.50
2019-05-21T21:56:45.349Z,100343.71
2019-05-21T21:59:13.868Z,100336.50
2019-05-21T22:01:49.079Z,100353.16
2019-05-21T22:04:20.176Z,100344.90
2019-05-21T22:06:49.304Z,100354.69
2019-05-21T22:09:21.530Z,100358.19
2019-05-21T22:11:51.959Z,100365.06
2019-05-21T22:14:20.676Z,100362.67
2019-05-21T22:16:51.819Z,100365.02
2019-05-21T22:19:21.378Z,100367.81
2019-05-21T22:21:50.363Z,100373.52
2019-05-21T22:24:19.044Z,100372.85
2019-05-21T22:26:48.760Z,100371.79
2019-05-21T22:29:17.924Z,100369.42
2019-05-21T22:31:46.587Z,100379.36
2019-05-21T22:34:15.086Z,100371.44
2019-05-21T22:36:43.596Z,100371.67
2019-05-21T22:39:22.791Z,100372.05
2019-05-21T22:41:51.476Z,100373.11
2019-05-21T22:44:20.099Z,100371.38
2019-05-21T22:46:49.271Z,100363.33
2019-05-21T22:49:17.803Z,100366.79
2019-05-21T22:51:46.316Z,100364.34
2019-05-21T22:54:14.811Z,100372.83
2019-05-21T22:56:43.323Z,100372.12
2019-05-21T22:59:11.918Z,100377.59
2019-05-21T23:01:41.248Z,100379.44
2019-05-21T23:04:09.717Z,100386.15
2019-05-21T23:06:38.292Z,100378.77
2019-05-21T23:09:07.602Z,100384.52
2019-05-21T23:11:36.089Z,100387.73
2019-05-21T23:14:04.865Z,100380.98
2019-05-21T23:16:33.371Z,100386.81
2019-05-21T23:19:02.199Z,100378.32
2019-05-21T23:21:31.059Z,100373.30
2019-05-21T23:23:59.963Z,100377.93
2019-05-21T23:26:28.982Z,100377.59
2019-05-21T23:28:57.880Z,100375.16
2019-05-21T23:31:26.498Z,100370.62
2019-05-21T23:33:56.092Z,100364.24
2019-05-21T23:36:24.599Z,100367.56
2019-05-21T23:38:53.447Z,100366.52
2019-05-21T23:41:21.953Z,100368.61
2019-05-21T23:43:50.621Z,100366.86
2019-05-21T23:46:20.170Z,100369.94
2019-05-21T23:48:49.325Z,100369.61
2019-05-21T23:51:17.967Z,100366.39
2019-05-21T23:53:46.838Z,100363.54
2019-05-21T23:56:15.352Z,100371.09
2019-05-21T23:58:47.962Z,100365.61
